Time;durP1;ratioP1;P1;durP2;ratioP2;P2;SDS_P1;SDS_P2;PMS_P1;PMS_P2;Temp;Humidity;BMP_temperature;BMP_pressure;BME280_temperature;BME280_humidity;BME280_pressure;Samples;Min_cycle;Max_cycle;Signal;HPM_P1;HPM_P2
2023/07/19 00:00:07;;;;;;;11.93;5.80;;;20.10;81.90;;;;;;5028085;28;20507;-74
2023/07/19 00:02:33;;;;;;;11.27;6.47;;;20.10;81.80;;;;;;5037660;28;20192;-75
2023/07/19 00:04:59;;;;;;;11.53;6.20;;;20.10;81.50;;;;;;5031712;28;20535;-74
2023/07/19 00:07:25;;;;;;;9.20;5.17;;;20.00;81.70;;;;;;5041030;28;20530;-73
2023/07/19 00:09:50;;;;;;;10.07;5.70;;;20.10;81.80;;;;;;5032737;28;20213;-73
2023/07/19 00:12:16;;;;;;;11.03;6.20;;;20.10;81.80;;;;;;5033993;28;20558;-74
2023/07/19 00:14:42;;;;;;;11.20;6.20;;;20.20;81.90;;;;;;5046614;28;20181;-72
2023/07/19 00:17:07;;;;;;;10.40;6.13;;;20.20;82.20;;;;;;5049428;28;20328;-72
2023/07/19 00:19:33;;;;;;;11.93;6.33;;;20.20;82.70;;;;;;5040038;28;20194;-71
2023/07/19 00:21:58;;;;;;;10.30;6.47;;;20.30;82.80;;;;;;5043871;28;20232;-74
2023/07/19 00:24:24;;;;;;;11.07;6.10;;;20.20;83.10;;;;;;5038763;28;20182;-73
2023/07/19 00:26:50;;;;;;;10.00;6.40;;;20.20;83.30;;;;;;5035373;28;20240;-72
2023/07/19 00:29:15;;;;;;;9.93;6.33;;;20.20;83.40;;;;;;5034291;28;20190;-74
2023/07/19 00:31:41;;;;;;;14.00;6.97;;;20.20;83.70;;;;;;5033827;28;20250;-73
2023/07/19 00:34:07;;;;;;;14.17;6.33;;;20.20;84.00;;;;;;5042213;28;20182;-73
2023/07/19 00:36:32;;;;;;;13.27;6.13;;;20.10;84.00;;;;;;5050227;28;20241;-73
2023/07/19 00:38:58;;;;;;;11.60;6.53;;;20.00;84.30;;;;;;5036981;28;20197;-71
2023/07/19 00:41:24;;;;;;;10.63;6.80;;;20.00;84.60;;;;;;5034682;28;20229;-72
2023/07/19 00:43:49;;;;;;;10.63;5.77;;;20.00;84.30;;;;;;5041210;28;20197;-72
2023/07/19 00:46:15;;;;;;;10.10;5.50;;;20.00;84.10;;;;;;5042343;28;20192;-72
2023/07/19 00:48:42;;;;;;;11.50;6.87;;;20.00;84.00;;;;;;5034638;28;20185;-72
2023/07/19 00:51:07;;;;;;;13.73;6.80;;;20.10;83.60;;;;;;5032871;28;20358;-73
2023/07/19 00:53:33;;;;;;;11.17;6.70;;;20.10;83.60;;;;;;5052104;28;20938;-72
2023/07/19 00:55:59;;;;;;;9.30;5.83;;;20.10;83.70;;;;;;5053361;28;20216;-71
2023/07/19 00:58:25;;;;;;;11.40;6.03;;;20.10;83.70;;;;;;5049339;28;20466;-73
2023/07/19 01:00:52;;;;;;;8.83;6.33;;;20.10;83.60;;;;;;5033980;28;20633;-72
2023/07/19 01:03:18;;;;;;;11.63;6.17;;;20.20;83.70;;;;;;5046947;28;20672;-72
2023/07/19 01:05:44;;;;;;;15.87;6.10;;;20.20;83.40;;;;;;5052738;28;20443;-73
2023/07/19 01:08:17;;;;;;;11.67;6.90;;;20.30;83.30;;;;;;5040060;28;20447;-71
2023/07/19 01:10:43;;;;;;;9.50;6.60;;;20.30;83.10;;;;;;5030172;28;20741;-71
2023/07/19 01:13:11;;;;;;;10.40;6.73;;;20.20;83.10;;;;;;5040301;28;20452;-75
2023/07/19 01:15:37;;;;;;;12.47;6.67;;;20.20;83.10;;;;;;5040789;28;20221;-72
2023/07/19 01:18:03;;;;;;;11.13;7.20;;;20.20;83.10;;;;;;5032336;28;20502;-74
2023/07/19 01:20:29;;;;;;;10.30;6.63;;;20.10;83.40;;;;;;5037584;28;20492;-72
2023/07/19 01:22:55;;;;;;;12.83;6.53;;;20.00;83.60;;;;;;5039555;28;20470;-73
2023/07/19 01:25:22;;;;;;;14.53;6.90;;;20.00;83.40;;;;;;5048761;28;20253;-74
2023/07/19 01:27:48;;;;;;;14.20;6.50;;;20.00;83.70;;;;;;5040465;28;20440;-74
2023/07/19 01:30:13;;;;;;;9.87;6.10;;;20.10;83.80;;;;;;5048292;28;20597;-75
2023/07/19 01:32:39;;;;;;;9.93;6.60;;;20.10;83.80;;;;;;5036587;28;20827;-75
2023/07/19 01:35:05;;;;;;;11.70;6.27;;;20.20;83.30;;;;;;5046261;28;20745;-74
2023/07/19 01:37:31;;;;;;;12.10;6.63;;;20.10;83.00;;;;;;5047750;28;20762;-75
2023/07/19 01:39:57;;;;;;;10.13;6.20;;;20.10;83.10;;;;;;5033272;28;20469;-75
2023/07/19 01:42:23;;;;;;;10.73;6.20;;;20.10;83.30;;;;;;5043262;28;20663;-74
2023/07/19 01:44:48;;;;;;;9.40;6.20;;;20.00;83.60;;;;;;5038802;28;20433;-73
2023/07/19 01:47:14;;;;;;;12.53;6.90;;;19.90;83.80;;;;;;5044310;28;20192;-73
2023/07/19 01:49:40;;;;;;;13.67;6.73;;;19.80;84.30;;;;;;5041676;28;20643;-75
2023/07/19 01:52:06;;;;;;;15.30;6.80;;;19.80;84.70;;;;;;5033469;28;20182;-73
2023/07/19 01:54:32;;;;;;;12.43;6.77;;;19.70;84.90;;;;;;5040595;28;20185;-72
2023/07/19 01:56:58;;;;;;;11.67;6.43;;;19.70;85.00;;;;;;5044961;28;20530;-72
2023/07/19 01:59:23;;;;;;;14.50;7.20;;;19.70;84.70;;;;;;5034183;28;20522;-73
2023/07/19 02:01:49;;;;;;;11.60;6.60;;;19.70;84.70;;;;;;5029510;28;20499;-73
2023/07/19 02:04:15;;;;;;;13.83;7.23;;;19.70;84.70;;;;;;5034040;28;20186;-73
2023/07/19 02:06:40;;;;;;;11.20;5.90;;;19.70;84.60;;;;;;5032261;28;20579;-73
2023/07/19 02:09:06;;;;;;;14.07;6.30;;;19.70;84.70;;;;;;5035005;28;20201;-73
2023/07/19 02:11:31;;;;;;;11.30;7.10;;;19.70;84.40;;;;;;5034806;28;20213;-74
2023/07/19 02:13:57;;;;;;;12.57;6.97;;;19.60;84.90;;;;;;5032195;28;20213;-73
2023/07/19 02:16:23;;;;;;;10.00;6.13;;;19.50;85.30;;;;;;5030794;28;20327;-73
2023/07/19 02:18:48;;;;;;;14.40;6.70;;;19.40;85.70;;;;;;5030267;28;20234;-73
2023/07/19 02:21:14;;;;;;;9.90;6.40;;;19.30;86.00;;;;;;5029309;28;20217;-73
2023/07/19 02:23:39;;;;;;;13.63;6.97;;;19.30;86.30;;;;;;5042369;28;20290;-72
2023/07/19 02:26:05;;;;;;;11.57;6.30;;;19.30;86.50;;;;;;5045174;28;20195;-72
2023/07/19 02:28:31;;;;;;;11.83;6.07;;;19.20;86.50;;;;;;5040644;28;20563;-74
2023/07/19 02:30:56;;;;;;;10.90;6.57;;;19.20;86.80;;;;;;5036445;28;20205;-76
2023/07/19 02:33:22;;;;;;;10.20;6.50;;;19.20;86.30;;;;;;5032044;28;20217;-74
2023/07/19 02:35:55;;;;;;;12.10;6.23;;;19.20;86.20;;;;;;5042826;28;20228;-74
2023/07/19 02:38:24;;;;;;;13.63;6.50;;;19.10;86.30;;;;;;5037810;28;20705;-75
2023/07/19 02:40:49;;;;;;;13.67;6.30;;;19.10;86.20;;;;;;5034157;28;20524;-74
2023/07/19 02:43:15;;;;;;;17.63;6.50;;;19.10;85.70;;;;;;5040775;28;20423;-74
2023/07/19 02:45:42;;;;;;;10.33;5.43;;;19.10;85.30;;;;;;5048502;28;20191;-74
2023/07/19 02:48:07;;;;;;;10.60;6.23;;;19.00;85.60;;;;;;5034109;28;20215;-74
2023/07/19 02:50:33;;;;;;;16.00;6.30;;;18.90;85.30;;;;;;5029005;28;20466;-75
2023/07/19 02:52:58;;;;;;;8.40;5.00;;;18.90;84.90;;;;;;5034709;28;20599;-74
2023/07/19 02:55:24;;;;;;;12.40;6.10;;;18.90;84.40;;;;;;5040170;28;20544;-74
2023/07/19 02:57:50;;;;;;;9.67;5.37;;;19.00;84.00;;;;;;5037149;28;20254;-74
2023/07/19 03:00:15;;;;;;;9.43;5.50;;;19.10;83.70;;;;;;5038049;28;21201;-74
2023/07/19 03:02:41;;;;;;;8.87;6.17;;;19.10;83.80;;;;;;5031842;28;20288;-74
2023/07/19 03:05:07;;;;;;;9.20;5.80;;;19.10;83.70;;;;;;5034663;28;20513;-75
2023/07/19 03:07:33;;;;;;;11.37;5.93;;;19.00;83.60;;;;;;4990836;28;1139687;-75
2023/07/19 03:09:59;;;;;;;10.73;6.00;;;19.10;84.00;;;;;;5032209;28;20216;-75
2023/07/19 03:12:25;;;;;;;12.13;6.20;;;19.10;84.10;;;;;;5032994;28;20196;-75
2023/07/19 03:14:50;;;;;;;10.03;6.13;;;19.10;84.10;;;;;;5033330;28;20810;-77
2023/07/19 03:17:16;;;;;;;9.80;5.60;;;19.00;84.40;;;;;;5030460;28;20226;-75
2023/07/19 03:19:42;;;;;;;8.13;5.30;;;19.00;84.30;;;;;;5028141;28;20215;-75
2023/07/19 03:22:07;;;;;;;9.93;5.90;;;18.90;84.00;;;;;;5031077;28;20183;-74
2023/07/19 03:24:33;;;;;;;13.00;6.43;;;18.90;84.00;;;;;;5034800;28;20196;-74
2023/07/19 03:26:59;;;;;;;11.30;6.40;;;19.00;84.30;;;;;;5030340;28;20291;-74
2023/07/19 03:29:25;;;;;;;10.97;5.80;;;19.00;84.00;;;;;;5050167;28;20462;-75
2023/07/19 03:31:51;;;;;;;10.23;6.33;;;18.90;83.70;;;;;;5042205;28;20239;-74
2023/07/19 03:34:16;;;;;;;12.90;6.10;;;18.90;83.60;;;;;;5047562;28;20206;-74
2023/07/19 03:36:42;;;;;;;10.00;6.23;;;18.90;83.60;;;;;;5039593;28;20377;-74
2023/07/19 03:39:07;;;;;;;8.93;6.13;;;18.90;83.10;;;;;;5035398;28;20200;-73
2023/07/19 03:41:33;;;;;;;9.80;5.73;;;18.90;82.80;;;;;;5031860;28;20216;-75
2023/07/19 03:43:58;;;;;;;11.10;5.97;;;18.80;82.70;;;;;;5046425;28;20181;-73
2023/07/19 03:46:24;;;;;;;11.63;6.10;;;18.80;82.50;;;;;;5045241;28;20308;-74
2023/07/19 03:48:50;;;;;;;14.53;6.80;;;18.80;82.40;;;;;;5046848;28;20195;-73
2023/07/19 03:51:15;;;;;;;11.90;5.40;;;18.80;82.50;;;;;;5033986;28;20908;-72
2023/07/19 03:53:41;;;;;;;10.37;5.47;;;18.80;82.50;;;;;;5036874;28;20187;-72
2023/07/19 03:56:07;;;;;;;10.10;5.80;;;18.80;82.50;;;;;;5031856;28;20231;-72
2023/07/19 03:58:33;;;;;;;13.23;6.50;;;18.80;82.40;;;;;;5039209;28;20578;-73
2023/07/19 04:00:59;;;;;;;11.57;6.20;;;18.80;82.20;;;;;;5029171;28;20314;-72
2023/07/19 04:03:26;;;;;;;9.83;5.90;;;18.80;82.20;;;;;;5036465;28;20195;-74
2023/07/19 04:05:54;;;;;;;11.67;5.73;;;18.80;82.20;;;;;;5039460;28;20992;-72
2023/07/19 04:08:20;;;;;;;13.73;7.20;;;18.70;82.50;;;;;;5035386;28;20450;-72
2023/07/19 04:10:46;;;;;;;13.03;6.40;;;18.80;82.80;;;;;;5030887;28;21281;-74
2023/07/19 04:13:12;;;;;;;10.53;6.07;;;18.80;82.80;;;;;;5023139;28;20640;-72
2023/07/19 04:15:39;;;;;;;11.57;6.40;;;18.80;83.00;;;;;;5030503;28;20549;-72
2023/07/19 04:18:04;;;;;;;13.20;5.73;;;18.80;82.80;;;;;;5028251;28;20439;-71
2023/07/19 04:20:30;;;;;;;9.30;6.00;;;18.90;82.70;;;;;;5027010;28;20470;-71
2023/07/19 04:22:57;;;;;;;9.33;6.10;;;18.90;82.50;;;;;;5032910;28;20625;-72
2023/07/19 04:25:24;;;;;;;15.77;6.53;;;19.00;82.50;;;;;;5030013;28;21053;-72
2023/07/19 04:27:53;;;;;;;14.87;6.97;;;19.00;82.80;;;;;;5043532;28;20434;-78
2023/07/19 04:30:19;;;;;;;9.20;5.60;;;19.10;82.50;;;;;;5026881;28;20484;-77
2023/07/19 04:32:45;;;;;;;8.53;5.60;;;19.20;82.40;;;;;;5040042;28;20423;-78
2023/07/19 04:35:11;;;;;;;12.50;6.23;;;19.20;81.70;;;;;;5040085;28;20222;-78
2023/07/19 04:37:38;;;;;;;11.53;5.63;;;19.20;80.80;;;;;;5043617;28;20247;-78
2023/07/19 04:40:06;;;;;;;9.40;5.50;;;19.20;80.50;;;;;;5044603;28;20546;-79
2023/07/19 04:42:31;;;;;;;8.93;6.03;;;19.30;79.70;;;;;;5037414;28;20434;-77
2023/07/19 04:44:57;;;;;;;13.60;6.70;;;19.20;79.90;;;;;;5040068;28;20856;-77
2023/07/19 04:47:23;;;;;;;13.37;5.70;;;19.40;80.80;;;;;;5043467;28;20197;-78
2023/07/19 04:49:48;;;;;;;11.07;6.40;;;19.40;80.90;;;;;;5037902;28;20224;-79
2023/07/19 04:52:14;;;;;;;9.17;5.30;;;19.30;81.10;;;;;;5040489;28;20200;-78
2023/07/19 04:54:40;;;;;;;10.33;6.10;;;19.20;81.40;;;;;;5038953;28;20192;-78
2023/07/19 04:57:06;;;;;;;22.37;6.10;;;19.10;81.80;;;;;;5038790;28;20250;-77
2023/07/19 04:59:32;;;;;;;12.00;6.90;;;19.20;81.80;;;;;;5054501;28;20434;-79
2023/07/19 05:01:58;;;;;;;11.00;6.40;;;19.30;81.50;;;;;;5043221;28;20458;-78
2023/07/19 05:04:24;;;;;;;10.03;6.00;;;19.40;80.90;;;;;;5051787;28;20433;-80
2023/07/19 05:06:49;;;;;;;11.37;6.40;;;19.40;80.60;;;;;;5060740;28;20260;-79
2023/07/19 05:09:15;;;;;;;11.00;6.97;;;19.30;81.10;;;;;;5070978;22;20319;-76
2023/07/19 05:11:41;;;;;;;10.93;6.03;;;19.30;81.50;;;;;;5037911;28;20223;-78
2023/07/19 05:14:07;;;;;;;13.70;7.37;;;19.30;81.90;;;;;;5049199;28;20437;-83
2023/07/19 05:16:33;;;;;;;10.90;6.57;;;19.20;82.20;;;;;;5048845;28;20240;-82
2023/07/19 05:18:59;;;;;;;11.30;6.10;;;19.20;82.40;;;;;;5049464;28;20231;-84
2023/07/19 05:21:25;;;;;;;9.30;5.37;;;19.30;82.40;;;;;;5052458;28;21009;-83
2023/07/19 05:23:51;;;;;;;11.80;5.37;;;19.40;81.20;;;;;;5054957;28;20235;-81
2023/07/19 05:26:18;;;;;;;11.07;6.13;;;19.50;81.20;;;;;;5050797;28;20268;-79
2023/07/19 05:28:43;;;;;;;11.97;6.03;;;19.50;80.90;;;;;;5055944;28;20503;-81
2023/07/19 05:31:09;;;;;;;10.60;6.57;;;19.70;80.50;;;;;;5050215;28;20460;-83
2023/07/19 05:33:35;;;;;;;11.67;5.53;;;19.90;80.00;;;;;;5064886;28;20189;-83
2023/07/19 05:36:01;;;;;;;9.60;6.00;;;19.90;79.00;;;;;;5060665;28;20298;-82
2023/07/19 05:38:28;;;;;;;9.87;5.77;;;20.00;77.80;;;;;;5066895;28;20466;-84
2023/07/19 05:41:02;;;;;;;11.00;5.40;;;20.20;75.90;;;;;;5069656;28;20216;-84
2023/07/19 05:43:32;;;;;;;11.63;5.43;;;20.40;74.90;;;;;;5063648;28;20436;-84
2023/07/19 05:46:06;;;;;;;11.33;5.40;;;20.50;74.60;;;;;;5058889;28;20449;-84
2023/07/19 05:48:32;;;;;;;13.13;5.40;;;20.60;74.90;;;;;;5065278;28;20441;-82
2023/07/19 05:50:59;;;;;;;8.73;4.70;;;20.70;73.60;;;;;;5058423;28;20460;-84
2023/07/19 05:53:25;;;;;;;10.10;5.23;;;20.80;73.30;;;;;;5059809;28;20452;-83
2023/07/19 05:55:52;;;;;;;8.30;4.77;;;20.90;72.90;;;;;;5060042;28;20409;-82
2023/07/19 05:58:21;;;;;;;8.70;5.20;;;21.10;71.80;;;;;;5060601;28;20456;-83
2023/07/19 06:00:47;;;;;;;13.20;5.77;;;21.20;71.00;;;;;;5057793;28;20564;-82
2023/07/19 06:03:16;;;;;;;9.70;4.83;;;21.30;70.80;;;;;;5068890;28;20439;-83
2023/07/19 06:05:45;;;;;;;12.60;4.77;;;21.40;70.20;;;;;;5061782;28;20441;-82
2023/07/19 06:08:14;;;;;;;8.23;5.23;;;21.50;69.80;;;;;;5049869;28;20449;-82
2023/07/19 06:10:39;;;;;;;8.40;5.10;;;21.60;69.80;;;;;;5046382;28;20471;-81
2023/07/19 06:13:06;;;;;;;8.00;4.97;;;21.60;69.50;;;;;;5052744;28;20524;-81
2023/07/19 06:15:33;;;;;;;9.17;4.87;;;21.80;69.40;;;;;;5056366;28;20202;-80
2023/07/19 06:18:02;;;;;;;9.20;5.17;;;21.80;69.10;;;;;;5048369;28;20556;-81
2023/07/19 06:20:27;;;;;;;7.50;4.47;;;21.90;68.90;;;;;;5046960;28;20521;-82
2023/07/19 06:22:53;;;;;;;7.73;4.30;;;22.10;68.30;;;;;;5058114;28;20438;-80
2023/07/19 06:25:19;;;;;;;9.70;4.40;;;22.10;68.30;;;;;;5056232;28;20211;-80
2023/07/19 06:27:44;;;;;;;12.40;4.70;;;22.20;68.20;;;;;;5049374;28;20198;-80
2023/07/19 06:30:11;;;;;;;8.20;5.37;;;22.20;68.00;;;;;;5057082;28;20207;-81
2023/07/19 06:32:36;;;;;;;8.80;4.83;;;22.30;68.30;;;;;;5057865;28;20188;-82
2023/07/19 06:35:03;;;;;;;7.87;5.03;;;22.40;68.00;;;;;;5055565;28;20497;-80
2023/07/19 06:37:29;;;;;;;18.70;6.00;;;22.40;68.20;;;;;;5053761;28;20227;-82
2023/07/19 06:39:55;;;;;;;15.73;5.37;;;22.50;68.00;;;;;;5044957;28;20474;-81
2023/07/19 06:42:20;;;;;;;7.13;4.70;;;22.60;67.90;;;;;;5054958;28;20528;-81
2023/07/19 06:44:47;;;;;;;7.77;4.70;;;22.70;67.70;;;;;;5053489;28;20353;-80
2023/07/19 06:47:14;;;;;;;10.87;5.00;;;22.80;67.60;;;;;;5048235;28;20222;-79
2023/07/19 06:49:40;;;;;;;9.40;5.10;;;22.90;67.30;;;;;;5049444;28;21036;-81
2023/07/19 06:52:06;;;;;;;10.10;5.30;;;22.90;67.30;;;;;;5049956;28;20442;-82
2023/07/19 06:54:32;;;;;;;6.80;4.53;;;23.00;67.00;;;;;;5049501;28;20209;-81
2023/07/19 06:56:58;;;;;;;10.83;5.13;;;23.00;66.90;;;;;;5049879;28;20500;-80
2023/07/19 06:59:23;;;;;;;7.57;4.50;;;23.10;66.90;;;;;;5053107;28;20180;-80
2023/07/19 07:01:49;;;;;;;8.23;4.60;;;23.20;66.90;;;;;;5058628;28;20229;-81
2023/07/19 07:04:15;;;;;;;10.03;5.80;;;23.30;66.70;;;;;;5051884;28;20181;-82
2023/07/19 07:06:41;;;;;;;9.17;4.80;;;23.30;66.60;;;;;;5056860;28;20188;-82
2023/07/19 07:09:07;;;;;;;9.77;5.40;;;23.30;66.90;;;;;;5050453;28;21113;-82
2023/07/19 07:11:33;;;;;;;7.90;4.93;;;23.50;66.90;;;;;;5059593;28;20216;-82
2023/07/19 07:13:58;;;;;;;10.50;5.10;;;23.50;65.60;;;;;;5055224;28;20426;-80
2023/07/19 07:16:24;;;;;;;11.53;5.63;;;23.60;65.10;;;;;;5056509;28;20234;-81
2023/07/19 07:18:49;;;;;;;10.40;6.10;;;23.60;65.70;;;;;;5057781;28;20251;-80
2023/07/19 07:21:15;;;;;;;15.50;5.37;;;23.60;65.80;;;;;;5051200;28;20219;-80
2023/07/19 07:23:41;;;;;;;6.47;4.40;;;23.70;64.10;;;;;;5053733;28;20195;-80
2023/07/19 07:26:07;;;;;;;9.33;5.10;;;23.90;64.10;;;;;;5058875;28;20733;-80
2023/07/19 07:28:33;;;;;;;7.43;4.10;;;24.00;63.90;;;;;;5065353;28;20209;-80
2023/07/19 07:31:06;;;;;;;6.77;3.70;;;24.10;63.80;;;;;;5057523;28;20212;-80
2023/07/19 07:33:31;;;;;;;5.83;3.20;;;24.30;62.80;;;;;;5050523;28;20200;-80
2023/07/19 07:35:57;;;;;;;7.47;4.50;;;24.30;61.90;;;;;;5058908;28;20434;-80
2023/07/19 07:38:23;;;;;;;6.57;3.70;;;24.50;61.90;;;;;;5045552;28;20208;-80
2023/07/19 07:40:48;;;;;;;7.80;3.20;;;24.50;60.90;;;;;;5050661;28;20205;-80
2023/07/19 07:43:14;;;;;;;7.17;3.60;;;24.70;58.50;;;;;;5056233;28;20207;-81
2023/07/19 07:45:40;;;;;;;7.33;3.53;;;24.70;58.00;;;;;;5061087;28;20246;-82
2023/07/19 07:48:06;;;;;;;8.57;3.07;;;24.80;57.60;;;;;;5058973;28;20437;-80
2023/07/19 07:50:31;;;;;;;6.83;2.80;;;24.80;56.50;;;;;;5047399;28;20208;-80
2023/07/19 07:52:57;;;;;;;6.13;3.03;;;24.90;56.20;;;;;;5057622;28;20205;-81
2023/07/19 07:55:23;;;;;;;6.40;3.27;;;24.90;56.20;;;;;;5066016;28;20199;-81
2023/07/19 07:57:49;;;;;;;9.20;3.20;;;25.00;56.10;;;;;;5070432;28;20216;-80
2023/07/19 08:00:17;;;;;;;6.33;2.93;;;25.00;53.80;;;;;;5067313;28;20246;-80
2023/07/19 08:02:42;;;;;;;4.10;2.60;;;24.90;53.30;;;;;;5059906;28;20499;-80
2023/07/19 08:05:09;;;;;;;5.60;2.70;;;25.00;52.90;;;;;;5062853;28;20460;-79
2023/07/19 08:07:35;;;;;;;7.40;2.87;;;25.10;52.50;;;;;;5057973;28;20173;-80
2023/07/19 08:10:01;;;;;;;7.83;3.27;;;25.20;51.40;;;;;;5053818;28;20502;-80
2023/07/19 08:12:28;;;;;;;4.87;2.23;;;25.30;50.30;;;;;;5056733;28;20495;-80
2023/07/19 08:14:53;;;;;;;6.30;2.70;;;25.40;49.00;;;;;;5048878;28;20182;-80
2023/07/19 08:17:19;;;;;;;4.43;2.40;;;25.40;49.10;;;;;;5044600;28;20491;-81
2023/07/19 08:19:44;;;;;;;5.53;2.63;;;25.50;48.30;;;;;;5055945;28;20186;-81
2023/07/19 08:22:25;;;;;;;4.20;2.60;;;25.50;49.00;;;;;;5057135;28;20201;-79
2023/07/19 08:24:51;;;;;;;3.33;2.50;;;25.60;48.30;;;;;;5057677;28;20305;-82
2023/07/19 08:27:16;;;;;;;4.57;2.70;;;25.60;48.60;;;;;;5064973;28;20792;-80
2023/07/19 08:29:42;;;;;;;3.67;2.10;;;25.60;47.70;;;;;;5056899;28;20191;-80
2023/07/19 08:32:07;;;;;;;6.77;2.23;;;25.80;46.90;;;;;;5060827;28;21010;-81
2023/07/19 08:34:33;;;;;;;5.63;2.63;;;25.90;46.10;;;;;;5064178;28;20192;-80
2023/07/19 08:37:00;;;;;;;11.07;2.67;;;25.80;46.50;;;;;;5068616;28;20219;-80
2023/07/19 08:39:27;;;;;;;3.87;2.40;;;25.70;46.60;;;;;;5064651;28;20450;-81
2023/07/19 08:41:53;;;;;;;2.63;1.97;;;25.80;46.70;;;;;;5057230;28;20524;-80
2023/07/19 08:44:22;;;;;;;5.83;2.60;;;26.00;45.70;;;;;;5055223;28;20614;-82
2023/07/19 08:46:49;;;;;;;5.90;2.53;;;25.90;45.50;;;;;;5060282;28;20438;-81
2023/07/19 08:49:17;;;;;;;6.40;2.50;;;25.90;45.80;;;;;;5063005;28;20506;-80
2023/07/19 08:51:45;;;;;;;5.47;2.97;;;25.80;45.80;;;;;;5052999;28;21050;-80
2023/07/19 08:54:11;;;;;;;3.77;2.47;;;25.90;46.10;;;;;;5057552;28;20427;-81
2023/07/19 08:56:38;;;;;;;4.80;2.33;;;26.00;43.10;;;;;;5052740;28;20498;-83
2023/07/19 08:59:04;;;;;;;5.20;2.40;;;26.10;44.10;;;;;;5056936;28;20449;-81
2023/07/19 09:01:30;;;;;;;7.20;2.53;;;26.10;43.90;;;;;;5059816;28;20482;-82
2023/07/19 09:03:55;;;;;;;5.30;2.53;;;26.10;45.10;;;;;;5055837;28;20437;-81
2023/07/19 09:06:41;;;;;;;3.90;2.20;;;26.20;44.50;;;;;;5054677;28;20202;-81
2023/07/19 09:09:10;;;;;;;5.53;2.90;;;26.40;42.70;;;;;;5065822;28;20210;-80
2023/07/19 09:11:35;;;;;;;3.77;2.50;;;26.40;43.00;;;;;;5057927;28;20477;-80
2023/07/19 09:14:01;;;;;;;3.77;2.23;;;26.20;42.80;;;;;;5068143;28;20474;-81
2023/07/19 09:16:29;;;;;;;6.50;2.37;;;26.20;42.00;;;;;;5043587;28;20223;-81
2023/07/19 09:18:57;;;;;;;6.83;2.97;;;26.20;42.80;;;;;;5052501;28;20226;-79
2023/07/19 09:21:45;;;;;;;4.20;2.57;;;26.20;42.80;;;;;;5047518;28;20489;-80
2023/07/19 09:24:11;;;;;;;6.70;2.30;;;26.00;43.00;;;;;;5044330;28;20522;-80
2023/07/19 09:26:50;;;;;;;4.53;2.30;;;26.20;43.00;;;;;;5056553;28;20873;-78
2023/07/19 09:29:17;;;;;;;5.43;2.20;;;26.20;42.20;;;;;;5043544;28;21284;-79
2023/07/19 09:31:58;;;;;;;8.83;2.23;;;26.30;42.40;;;;;;5051237;28;20462;-81
2023/07/19 09:34:36;;;;;;;3.27;1.87;;;26.60;42.60;;;;;;5048958;28;20533;-80
2023/07/19 09:37:02;;;;;;;5.83;2.33;;;26.50;41.40;;;;;;5051645;28;20488;-79
2023/07/19 09:39:34;;;;;;;6.37;2.63;;;26.60;41.50;;;;;;5049376;28;20439;-81
2023/07/19 09:42:00;;;;;;;5.10;2.50;;;26.60;39.50;;;;;;5058775;28;20443;-82
2023/07/19 09:44:27;;;;;;;5.13;3.07;;;26.60;41.10;;;;;;5059511;28;20427;-81
2023/07/19 09:46:54;;;;;;;3.40;2.20;;;26.90;40.70;;;;;;5052700;28;20439;-81
2023/07/19 09:49:20;;;;;;;8.50;2.20;;;27.00;40.70;;;;;;5064487;28;20552;-83
2023/07/19 09:51:48;;;;;;;4.30;2.30;;;27.00;40.30;;;;;;5057028;28;20494;-82
2023/07/19 09:54:15;;;;;;;5.10;2.77;;;27.00;41.40;;;;;;5049079;28;20431;-81
2023/07/19 09:56:42;;;;;;;6.90;2.20;;;27.00;40.60;;;;;;5053510;28;20500;-82
2023/07/19 09:59:12;;;;;;;3.30;2.10;;;27.00;40.40;;;;;;5063896;28;20430;-82
2023/07/19 10:01:38;;;;;;;4.60;2.30;;;26.70;40.30;;;;;;5060430;28;20955;-82
2023/07/19 10:04:28;;;;;;;4.60;2.30;;;26.70;40.40;;;;;;5051840;28;20417;-79
2023/07/19 10:07:07;;;;;;;5.93;2.33;;;26.60;41.10;;;;;;5053536;28;20469;-79
2023/07/19 10:09:45;;;;;;;4.50;2.90;;;26.70;40.40;;;;;;5052326;28;20457;-80
2023/07/19 10:12:16;;;;;;;5.70;2.63;;;27.00;41.00;;;;;;5049960;28;20431;-81
2023/07/19 10:14:55;;;;;;;5.40;2.40;;;27.20;40.60;;;;;;5051143;28;20445;-80
2023/07/19 10:17:22;;;;;;;6.23;2.43;;;27.50;39.90;;;;;;5049001;28;20622;-80
2023/07/19 10:20:04;;;;;;;4.07;2.57;;;27.60;40.60;;;;;;5045278;28;20431;-81
2023/07/19 10:22:56;;;;;;;7.50;2.87;;;28.00;39.50;;;;;;5058013;28;20442;-80
2023/07/19 10:25:33;;;;;;;6.73;2.50;;;27.70;40.00;;;;;;5041042;28;20936;-81
2023/07/19 10:28:09;;;;;;;7.23;2.47;;;27.60;40.20;;;;;;5063672;28;20423;-81
2023/07/19 10:30:46;;;;;;;3.90;2.37;;;27.80;41.00;;;;;;5058342;28;20458;-81
2023/07/19 10:33:24;;;;;;;4.40;2.70;;;28.10;39.90;;;;;;5051406;28;20443;-81
2023/07/19 10:35:58;;;;;;;3.03;2.20;;;28.50;40.00;;;;;;5053294;28;20435;-80
2023/07/19 10:38:28;;;;;;;4.97;2.97;;;28.40;39.80;;;;;;5061944;28;20446;-81
2023/07/19 10:40:55;;;;;;;4.60;2.60;;;28.60;39.60;;;;;;5051879;28;20594;-80
2023/07/19 10:43:21;;;;;;;9.70;2.90;;;28.30;39.90;;;;;;5059020;28;20435;-81
2023/07/19 10:45:47;;;;;;;8.67;3.63;;;28.60;39.90;;;;;;5052708;28;20409;-80
2023/07/19 10:48:13;;;;;;;6.63;3.03;;;29.00;40.30;;;;;;5067618;28;20474;-81
2023/07/19 10:50:41;;;;;;;7.70;4.13;;;28.90;40.40;;;;;;5066184;28;20215;-79
2023/07/19 10:53:07;;;;;;;7.90;2.93;;;29.30;40.30;;;;;;5066970;28;20204;-80
2023/07/19 10:55:33;;;;;;;3.97;2.30;;;28.60;40.00;;;;;;5061759;28;20434;-80
2023/07/19 10:57:59;;;;;;;4.23;2.50;;;28.70;40.70;;;;;;5054478;28;20708;-81
2023/07/19 11:00:25;;;;;;;10.03;3.30;;;29.20;40.60;;;;;;5049487;28;20419;-80
2023/07/19 11:02:53;;;;;;;4.63;2.50;;;29.50;39.50;;;;;;5059309;28;20446;-80
2023/07/19 11:05:19;;;;;;;6.47;2.83;;;28.90;39.60;;;;;;5061182;28;20427;-81
2023/07/19 11:07:49;;;;;;;5.17;2.57;;;28.70;40.80;;;;;;5048600;28;20545;-79
2023/07/19 11:10:15;;;;;;;4.03;2.97;;;29.40;39.20;;;;;;5055494;28;20260;-80
2023/07/19 11:12:41;;;;;;;6.57;2.50;;;29.30;39.50;;;;;;5057523;28;20475;-79
2023/07/19 11:15:08;;;;;;;5.20;2.67;;;29.20;39.20;;;;;;5045179;28;20436;-79
2023/07/19 11:17:35;;;;;;;9.93;3.30;;;29.30;39.50;;;;;;5051728;28;20555;-79
2023/07/19 11:20:01;;;;;;;5.40;3.27;;;29.40;39.60;;;;;;5058100;28;20494;-80
2023/07/19 11:22:27;;;;;;;6.27;3.20;;;29.10;39.60;;;;;;5062160;28;20432;-80
2023/07/19 11:24:55;;;;;;;5.00;2.80;;;29.00;40.00;;;;;;5049424;28;20312;-80
2023/07/19 11:27:33;;;;;;;6.83;3.10;;;29.10;39.20;;;;;;5047517;28;20435;-79
2023/07/19 11:29:59;;;;;;;3.50;2.80;;;29.10;39.50;;;;;;5038857;28;20509;-78
2023/07/19 11:32:25;;;;;;;4.57;2.67;;;29.10;39.60;;;;;;5031817;28;20436;-77
2023/07/19 11:34:56;;;;;;;4.13;2.43;;;29.10;39.40;;;;;;5039101;28;20204;-77
2023/07/19 11:37:28;;;;;;;5.97;3.00;;;29.10;39.60;;;;;;5037955;28;20271;-79
2023/07/19 11:39:57;;;;;;;6.43;3.17;;;29.00;39.40;;;;;;5044228;28;20802;-78
2023/07/19 11:42:40;;;;;;;9.90;2.97;;;28.90;39.50;;;;;;5041138;28;20929;-78
2023/07/19 11:45:28;;;;;;;8.93;3.67;;;28.70;39.50;;;;;;5034962;28;20434;-79
2023/07/19 11:47:57;;;;;;;6.80;3.50;;;28.80;40.20;;;;;;5039751;28;20420;-80
2023/07/19 11:50:23;;;;;;;6.70;3.50;;;28.90;40.80;;;;;;5050768;28;20455;-80
2023/07/19 11:52:54;;;;;;;9.87;3.83;;;28.60;40.80;;;;;;5050987;28;20452;-81
2023/07/19 11:55:31;;;;;;;5.60;2.70;;;28.70;40.70;;;;;;5058257;28;20438;-81
2023/07/19 11:58:07;;;;;;;9.93;3.70;;;28.80;40.70;;;;;;5057402;28;20511;-80
2023/07/19 12:00:33;;;;;;;11.03;3.30;;;29.10;39.80;;;;;;5062922;28;20574;-81
2023/07/19 12:03:01;;;;;;;6.17;3.50;;;29.00;40.00;;;;;;5051663;28;20469;-80
2023/07/19 12:05:28;;;;;;;6.90;3.90;;;29.00;39.60;;;;;;5060835;28;20444;-80
2023/07/19 12:07:55;;;;;;;7.20;3.10;;;29.00;40.30;;;;;;5056678;28;20477;-80
2023/07/19 12:10:22;;;;;;;4.53;3.10;;;29.30;40.30;;;;;;5053302;28;20462;-80
2023/07/19 12:12:50;;;;;;;5.93;3.23;;;30.00;39.00;;;;;;5051315;28;20420;-80
2023/07/19 12:15:17;;;;;;;7.23;3.47;;;30.40;37.90;;;;;;5058148;28;20442;-80
2023/07/19 12:17:44;;;;;;;5.57;3.60;;;30.50;37.80;;;;;;5064498;28;20587;-81
2023/07/19 12:20:10;;;;;;;7.47;3.40;;;29.90;38.20;;;;;;5058104;28;20558;-80
2023/07/19 12:22:42;;;;;;;7.13;3.40;;;29.40;39.40;;;;;;5058978;28;20454;-81
2023/07/19 12:25:09;;;;;;;10.43;3.23;;;29.40;39.80;;;;;;5058158;28;20457;-81
2023/07/19 12:27:35;;;;;;;6.60;3.70;;;29.70;39.80;;;;;;5061805;28;20519;-82
2023/07/19 12:30:01;;;;;;;3.87;2.97;;;30.30;38.70;;;;;;5062171;28;20542;-81
2023/07/19 12:32:27;;;;;;;6.20;3.20;;;30.40;38.20;;;;;;5064768;28;20428;-81
2023/07/19 12:34:54;;;;;;;6.50;3.53;;;31.00;37.80;;;;;;5052942;28;20272;-80
2023/07/19 12:37:20;;;;;;;4.53;3.40;;;31.50;35.60;;;;;;5053794;28;20239;-79
2023/07/19 12:39:45;;;;;;;7.37;3.70;;;31.40;35.30;;;;;;5056616;28;20431;-82
2023/07/19 12:42:11;;;;;;;6.10;3.60;;;31.00;35.70;;;;;;5054766;28;20647;-80